Terminal Aerodrome Forecast
Issued by NWS Charleston, WV

Current Version | Previous Version | Graphics & Text | Print | Product List | Glossary On
Versions: 1 2 3 4 5 6 7 8 9 10 11 12 13 14 15 16 17 18 19 20 21 22 23
000
FTUS41 KRLX 191120
TAFEKN
TAF
KEKN 191120Z 1912/2012 VRB03KT P6SM -SHRA BKN090
     FM191400 17008KT P6SM BKN090
     FM191700 20008G18KT P6SM BKN050
     FM192100 18007KT P6SM SHRA VCTS BKN045CB
     FM200100 20004KT P6SM -SHRA BKN045
     FM200600 21003KT P6SM -SHRA BKN018
     FM200800 23003KT P6SM OVC012=

USA.gov is the U.S. government's official web portal to all federal, state and local government web resources and services.